Time;durP1;ratioP1;P1;durP2;ratioP2;P2;SDS_P1;SDS_P2;PMS_P1;PMS_P2;Temp;Humidity;BMP_temperature;BMP_pressure;BME280_temperature;BME280_humidity;BME280_pressure;Samples;Min_cycle;Max_cycle;Signal;HPM_P1;HPM_P2
2023/10/06 00:01:51;;;;;;;11.65;3.40;;;14.30;77.30;;;;;;5069735;28;20457;-71
2023/10/06 00:04:18;;;;;;;10.10;3.40;;;14.30;77.20;;;;;;5069262;28;20408;-71
2023/10/06 00:06:45;;;;;;;10.73;3.53;;;14.30;77.30;;;;;;5069583;28;20404;-71
2023/10/06 00:09:30;;;;;;;12.05;4.00;;;14.30;77.00;;;;;;5068875;28;20418;-72
2023/10/06 00:11:56;;;;;;;11.30;3.87;;;14.30;76.80;;;;;;5069400;28;20411;-72
2023/10/06 00:14:40;;;;;;;9.88;3.33;;;14.30;76.30;;;;;;5056184;28;20395;-71
2023/10/06 00:17:17;;;;;;;9.25;3.42;;;14.30;76.40;;;;;;5084862;28;20901;-72
2023/10/06 00:19:44;;;;;;;8.98;2.97;;;14.20;75.90;;;;;;5067931;28;20482;-71
2023/10/06 00:24:50;;;;;;;10.00;3.08;;;14.20;75.20;;;;;;5069723;28;20400;-71
2023/10/06 00:27:23;;;;;;;7.90;3.70;;;14.20;75.20;;;;;;5068996;28;20510;-72
2023/10/06 00:29:54;;;;;;;12.53;3.07;;;14.20;75.30;;;;;;5069053;28;20537;-72
2023/10/06 00:32:23;;;;;;;7.57;2.80;;;14.20;75.10;;;;;;5067046;28;20407;-72
2023/10/06 00:34:50;;;;;;;10.65;3.03;;;14.20;75.20;;;;;;5068939;28;20439;-71
2023/10/06 00:37:16;;;;;;;7.93;2.60;;;14.20;75.20;;;;;;5084679;28;20453;-72
2023/10/06 00:39:43;;;;;;;9.68;3.22;;;14.20;75.20;;;;;;5068783;28;20429;-71
2023/10/06 00:42:13;;;;;;;9.60;2.92;;;14.20;75.10;;;;;;5067821;28;21221;-71
2023/10/06 00:44:39;;;;;;;11.15;3.30;;;14.20;74.90;;;;;;5069017;28;20969;-72
2023/10/06 00:47:10;;;;;;;9.00;2.92;;;14.20;74.70;;;;;;5059216;28;20799;-72
2023/10/06 00:49:36;;;;;;;10.77;3.10;;;14.30;74.90;;;;;;5064701;28;20432;-71
2023/10/06 00:52:06;;;;;;;10.77;3.30;;;14.20;74.70;;;;;;5069089;28;20465;-71
2023/10/06 00:54:32;;;;;;;10.68;3.22;;;14.20;74.60;;;;;;5068719;28;20412;-71
2023/10/06 00:57:02;;;;;;;9.98;2.97;;;14.20;74.60;;;;;;5068557;28;20439;-71
2023/10/06 00:59:27;;;;;;;7.35;2.78;;;14.20;74.90;;;;;;5068306;28;20480;-71
2023/10/06 01:01:53;;;;;;;8.83;3.20;;;14.20;74.80;;;;;;5067510;28;20494;-71
2023/10/06 01:04:24;;;;;;;10.77;3.40;;;14.20;74.70;;;;;;5068177;28;20471;-71
2023/10/06 01:06:54;;;;;;;10.52;3.45;;;14.20;75.10;;;;;;5068390;28;20437;-72
2023/10/06 01:09:30;;;;;;;9.40;3.40;;;14.20;75.10;;;;;;5067880;28;20479;-71
2023/10/06 01:11:57;;;;;;;10.10;3.20;;;14.20;75.20;;;;;;5068529;28;20392;-71
2023/10/06 01:14:26;;;;;;;10.30;3.50;;;14.20;75.20;;;;;;5067907;28;21166;-71
2023/10/06 01:17:05;;;;;;;8.82;3.22;;;14.30;75.10;;;;;;5067778;28;20411;-71
2023/10/06 01:19:35;;;;;;;10.05;3.30;;;14.20;75.10;;;;;;5057319;28;20399;-71
2023/10/06 01:22:22;;;;;;;14.00;3.72;;;14.30;75.30;;;;;;5067831;28;20423;-71
2023/10/06 01:24:49;;;;;;;9.50;3.20;;;14.20;75.10;;;;;;5068296;28;20402;-71
2023/10/06 01:27:14;;;;;;;12.27;3.25;;;14.30;75.20;;;;;;5067471;28;20754;-72
2023/10/06 01:29:42;;;;;;;10.40;3.58;;;14.30;75.00;;;;;;5068198;28;20404;-72
2023/10/06 01:32:09;;;;;;;8.85;3.70;;;14.30;75.10;;;;;;5063138;28;20405;-71
2023/10/06 01:34:38;;;;;;;10.35;3.63;;;14.30;75.10;;;;;;5059848;28;20408;-72
2023/10/06 01:37:09;;;;;;;7.63;3.35;;;14.30;74.80;;;;;;5067120;28;20404;-71
2023/10/06 01:39:36;;;;;;;10.35;3.58;;;14.30;74.80;;;;;;5067283;28;20396;-71
2023/10/06 01:42:09;;;;;;;8.38;3.00;;;14.30;74.80;;;;;;5067735;28;20419;-71
2023/10/06 01:44:35;;;;;;;10.20;3.92;;;14.30;74.70;;;;;;5066414;28;20739;-71
2023/10/06 01:47:05;;;;;;;12.93;3.70;;;14.30;74.60;;;;;;5066520;28;20419;-71
2023/10/06 01:49:33;;;;;;;9.68;3.67;;;14.30;74.50;;;;;;5067579;28;20407;-71
2023/10/06 01:51:59;;;;;;;8.38;3.42;;;14.20;74.30;;;;;;5066316;28;20410;-71
2023/10/06 01:54:34;;;;;;;12.95;4.05;;;14.20;74.10;;;;;;5067040;28;20410;-72
2023/10/06 01:57:04;;;;;;;7.80;3.80;;;14.20;74.10;;;;;;5067480;28;20997;-72
2023/10/06 01:59:30;;;;;;;11.23;4.10;;;14.20;73.90;;;;;;5067482;28;20399;-71
2023/10/06 02:02:01;;;;;;;12.23;4.30;;;14.20;73.80;;;;;;5067608;28;20399;-71
2023/10/06 02:04:33;;;;;;;10.55;4.20;;;14.20;74.50;;;;;;5067097;28;20490;-71
2023/10/06 02:06:59;;;;;;;11.75;4.80;;;14.20;73.80;;;;;;5067671;28;20402;-71
2023/10/06 02:09:25;;;;;;;11.63;4.68;;;14.20;73.90;;;;;;5065504;28;20769;-71
2023/10/06 02:11:51;;;;;;;11.48;4.53;;;14.20;73.80;;;;;;5067225;28;20487;-71
2023/10/06 02:14:17;;;;;;;12.77;4.57;;;14.20;73.80;;;;;;5067421;28;20491;-71
2023/10/06 02:16:46;;;;;;;12.65;5.20;;;14.20;73.60;;;;;;5067138;28;20412;-71
2023/10/06 02:19:16;;;;;;;12.80;5.25;;;14.20;73.70;;;;;;5066048;28;20407;-71
2023/10/06 02:21:43;;;;;;;10.15;4.82;;;14.20;73.60;;;;;;5055833;28;20409;-71
2023/10/06 02:24:08;;;;;;;12.13;4.97;;;14.20;73.70;;;;;;5067287;28;20396;-71
2023/10/06 02:26:38;;;;;;;11.47;5.30;;;14.20;73.70;;;;;;5048972;28;20495;-71
2023/10/06 02:29:15;;;;;;;15.00;6.20;;;14.20;74.00;;;;;;5066321;28;20396;-71
2023/10/06 02:31:41;;;;;;;12.90;5.53;;;14.30;73.80;;;;;;5067586;28;20452;-71
2023/10/06 02:34:13;;;;;;;14.15;5.70;;;14.20;74.10;;;;;;5067898;28;20770;-71
2023/10/06 02:36:41;;;;;;;12.67;6.10;;;14.30;74.30;;;;;;5067057;28;20403;-71
2023/10/06 02:39:07;;;;;;;15.23;6.18;;;14.30;74.40;;;;;;5049560;28;20419;-71
2023/10/06 02:41:34;;;;;;;14.35;6.35;;;14.30;74.30;;;;;;5067226;28;20840;-71
2023/10/06 02:44:14;;;;;;;12.37;6.17;;;14.30;74.50;;;;;;5067150;28;20454;-72
2023/10/06 02:46:44;;;;;;;13.38;6.70;;;14.30;74.60;;;;;;5066966;28;20450;-71
2023/10/06 02:49:12;;;;;;;15.68;6.95;;;14.20;74.60;;;;;;5067507;28;20461;-71
2023/10/06 02:51:47;;;;;;;13.30;6.95;;;14.30;75.10;;;;;;5067742;28;20400;-72
2023/10/06 02:56:43;;;;;;;14.57;6.82;;;14.20;75.70;;;;;;5071049;28;20440;-71
2023/10/06 02:59:21;;;;;;;13.38;6.88;;;14.20;76.00;;;;;;5065650;28;20460;-71
2023/10/06 03:02:00;;;;;;;14.50;6.60;;;14.20;75.80;;;;;;5062660;28;20923;-72
2023/10/06 03:04:26;;;;;;;16.87;6.83;;;14.20;76.30;;;;;;5069925;28;20456;-71
2023/10/06 03:06:59;;;;;;;14.45;6.97;;;14.20;76.20;;;;;;5070766;28;20395;-71
2023/10/06 03:12:00;;;;;;;15.38;6.70;;;14.20;76.40;;;;;;5070591;28;20491;-71
2023/10/06 03:14:37;;;;;;;14.10;6.30;;;14.20;76.40;;;;;;5052643;28;20490;-72
2023/10/06 03:17:06;;;;;;;16.20;6.82;;;14.20;76.90;;;;;;5062784;28;20509;-72
2023/10/06 03:19:33;;;;;;;14.38;6.43;;;14.20;77.70;;;;;;5064858;28;20410;-71
2023/10/06 03:22:04;;;;;;;14.68;6.60;;;14.20;77.40;;;;;;5070625;28;20455;-72
2023/10/06 03:24:33;;;;;;;14.70;6.28;;;14.20;77.10;;;;;;5070693;28;20412;-71
2023/10/06 03:27:04;;;;;;;13.50;5.95;;;14.20;76.40;;;;;;5070710;28;20886;-71
2023/10/06 03:29:46;;;;;;;13.70;6.40;;;14.30;76.60;;;;;;5070302;28;20403;-71
2023/10/06 03:32:19;;;;;;;12.00;6.50;;;14.30;76.30;;;;;;5070620;28;20439;-71
2023/10/06 03:34:47;;;;;;;12.73;5.80;;;14.20;76.40;;;;;;5068665;28;20491;-71
2023/10/06 03:37:16;;;;;;;14.35;6.35;;;14.20;76.30;;;;;;5065581;28;20429;-71
2023/10/06 03:39:50;;;;;;;15.40;6.38;;;14.30;76.50;;;;;;5064046;28;20404;-71
2023/10/06 03:42:19;;;;;;;13.00;6.45;;;14.30;76.30;;;;;;5070494;28;20489;-72
2023/10/06 03:44:56;;;;;;;13.15;6.72;;;14.30;76.20;;;;;;5070129;28;20469;-71
2023/10/06 03:47:30;;;;;;;13.65;6.45;;;14.30;76.50;;;;;;5060540;28;20396;-72
2023/10/06 03:49:56;;;;;;;18.63;6.60;;;14.30;76.60;;;;;;5070069;28;20602;-72
2023/10/06 03:52:21;;;;;;;16.90;6.72;;;14.30;76.50;;;;;;5070637;28;20432;-71
2023/10/06 03:54:48;;;;;;;13.70;6.20;;;14.30;76.20;;;;;;5069907;28;20813;-72
2023/10/06 03:57:15;;;;;;;14.70;6.60;;;14.30;76.00;;;;;;5070497;28;20769;-71
2023/10/06 03:59:44;;;;;;;16.70;7.40;;;14.30;76.00;;;;;;5070009;28;20400;-72
2023/10/06 04:02:10;;;;;;;14.70;7.25;;;14.30;76.10;;;;;;5069902;28;20429;-71
2023/10/06 04:04:39;;;;;;;17.90;7.47;;;14.30;75.60;;;;;;5069952;28;20824;-72
2023/10/06 04:07:06;;;;;;;14.95;7.35;;;14.30;75.80;;;;;;5069393;28;20404;-71
2023/10/06 04:09:33;;;;;;;16.13;7.57;;;14.30;76.00;;;;;;5068288;28;20425;-72
2023/10/06 04:12:01;;;;;;;16.23;8.23;;;14.30;75.90;;;;;;5069836;28;20901;-71
2023/10/06 04:14:31;;;;;;;15.95;7.57;;;14.30;76.50;;;;;;5069127;28;20403;-71
2023/10/06 04:16:58;;;;;;;17.60;7.80;;;14.30;76.00;;;;;;5069518;28;20430;-72
2023/10/06 04:19:23;;;;;;;17.00;8.13;;;14.30;76.10;;;;;;5069125;28;20773;-71
2023/10/06 04:21:50;;;;;;;15.77;7.93;;;14.30;76.20;;;;;;5069400;28;20396;-71
2023/10/06 04:24:16;;;;;;;16.40;7.80;;;14.30;76.30;;;;;;5051042;28;20470;-71
2023/10/06 04:26:41;;;;;;;15.57;8.37;;;14.40;76.60;;;;;;5069664;28;21226;-71
2023/10/06 04:29:08;;;;;;;18.65;9.25;;;14.40;76.90;;;;;;5069559;28;20392;-71
2023/10/06 04:31:34;;;;;;;19.67;9.00;;;14.30;76.60;;;;;;5068208;28;20411;-71
2023/10/06 04:34:01;;;;;;;18.23;8.83;;;14.40;77.20;;;;;;5069538;28;20419;-71
2023/10/06 04:36:27;;;;;;;17.70;8.75;;;14.40;77.20;;;;;;5069322;28;20408;-71
2023/10/06 04:38:53;;;;;;;15.20;9.07;;;14.30;77.00;;;;;;5068881;28;20435;-71
2023/10/06 04:41:20;;;;;;;21.80;9.87;;;14.40;77.60;;;;;;5069350;28;20431;-71
2023/10/06 04:43:45;;;;;;;16.05;9.63;;;14.40;77.90;;;;;;5068828;28;20541;-71
2023/10/06 04:46:12;;;;;;;19.38;9.52;;;14.40;77.80;;;;;;5069234;28;20407;-71
2023/10/06 04:48:38;;;;;;;20.27;9.68;;;14.30;78.00;;;;;;5067495;28;20411;-71
2023/10/06 04:51:11;;;;;;;20.23;10.52;;;14.30;78.50;;;;;;5068770;28;20400;-72
2023/10/06 04:53:37;;;;;;;17.23;9.05;;;14.30;78.70;;;;;;5067708;28;21181;-71
2023/10/06 04:56:04;;;;;;;18.42;9.00;;;14.30;78.90;;;;;;5068779;28;20471;-71
2023/10/06 04:58:30;;;;;;;19.17;8.88;;;14.30;78.90;;;;;;5056098;28;20890;-72
2023/10/06 05:01:00;;;;;;;19.92;8.93;;;14.30;79.50;;;;;;5067340;28;20412;-72
2023/10/06 05:03:26;;;;;;;17.95;9.32;;;14.40;79.70;;;;;;5057993;28;20459;-71
2023/10/06 05:05:55;;;;;;;22.23;9.52;;;14.30;79.50;;;;;;5068130;28;20475;-71
2023/10/06 05:08:22;;;;;;;14.50;8.50;;;14.30;79.80;;;;;;5067986;28;20465;-71
2023/10/06 05:10:49;;;;;;;16.17;8.88;;;14.30;79.60;;;;;;5067309;28;20404;-72
2023/10/06 05:13:16;;;;;;;15.43;8.57;;;14.30;79.50;;;;;;5068946;28;20464;-72
2023/10/06 05:15:42;;;;;;;19.48;9.02;;;14.30;78.90;;;;;;5068156;28;20487;-71
2023/10/06 05:18:12;;;;;;;17.13;8.43;;;14.30;79.70;;;;;;5067361;28;20498;-71
2023/10/06 05:20:38;;;;;;;16.10;8.30;;;14.30;79.80;;;;;;5068318;28;21105;-71
2023/10/06 05:23:07;;;;;;;17.63;8.20;;;14.30;79.80;;;;;;5059315;28;20468;-71
2023/10/06 05:25:33;;;;;;;16.63;8.68;;;14.30;80.00;;;;;;5081615;28;20412;-71
2023/10/06 05:28:00;;;;;;;14.75;8.02;;;14.40;79.70;;;;;;5068539;28;20403;-72
2023/10/06 05:30:29;;;;;;;16.23;7.95;;;14.30;79.40;;;;;;5068025;28;20419;-70
2023/10/06 05:33:00;;;;;;;17.42;7.70;;;14.30;79.50;;;;;;5068193;28;20403;-70
2023/10/06 05:35:38;;;;;;;15.40;7.63;;;14.30;79.60;;;;;;5067360;28;21031;-72
2023/10/06 05:38:14;;;;;;;16.15;7.50;;;14.30;79.70;;;;;;5065059;28;20443;-71
2023/10/06 05:40:49;;;;;;;16.08;7.28;;;14.30;79.60;;;;;;5056429;28;20487;-72
2023/10/06 05:43:18;;;;;;;14.35;7.38;;;14.30;79.30;;;;;;5067394;28;20513;-72
2023/10/06 05:45:45;;;;;;;13.73;7.70;;;14.30;80.20;;;;;;5068322;28;20404;-71
2023/10/06 05:48:15;;;;;;;15.38;7.18;;;14.30;79.40;;;;;;5067784;28;20770;-71
2023/10/06 05:50:43;;;;;;;17.67;7.47;;;14.30;79.60;;;;;;5067898;28;20988;-71
2023/10/06 05:53:12;;;;;;;17.92;7.68;;;14.30;79.60;;;;;;5066394;28;20430;-71
2023/10/06 05:55:41;;;;;;;15.47;7.27;;;14.20;79.90;;;;;;5068163;28;20404;-72
2023/10/06 05:58:09;;;;;;;14.68;7.25;;;14.30;79.90;;;;;;5066540;28;20499;-71
2023/10/06 06:00:50;;;;;;;15.02;7.32;;;14.30;80.00;;;;;;5067845;28;20494;-72
2023/10/06 06:03:20;;;;;;;15.10;7.70;;;14.30;80.00;;;;;;5081103;28;20514;-71
2023/10/06 06:05:53;;;;;;;17.58;7.53;;;14.30;79.60;;;;;;5066401;28;20448;-72
2023/10/06 06:08:19;;;;;;;18.08;8.10;;;14.30;79.90;;;;;;5058688;28;20400;-71
2023/10/06 06:10:45;;;;;;;14.80;7.85;;;14.30;79.70;;;;;;5067167;28;20426;-71
2023/10/06 06:13:13;;;;;;;16.40;7.80;;;14.40;79.90;;;;;;5067691;28;20407;-71
2023/10/06 06:15:39;;;;;;;15.15;8.15;;;14.30;79.90;;;;;;5067502;28;20509;-72
2023/10/06 06:18:05;;;;;;;17.92;7.80;;;14.30;79.80;;;;;;5049447;28;20415;-71
2023/10/06 06:20:31;;;;;;;13.73;7.33;;;14.30;79.40;;;;;;5065746;28;20404;-71
2023/10/06 06:22:59;;;;;;;14.57;7.60;;;14.40;79.60;;;;;;5056376;28;20431;-72
2023/10/06 06:25:29;;;;;;;16.40;7.45;;;14.40;79.40;;;;;;5067521;28;21072;-72
2023/10/06 06:27:59;;;;;;;16.92;7.65;;;14.30;79.60;;;;;;5066219;28;20657;-72
2023/10/06 06:30:25;;;;;;;17.13;7.50;;;14.40;79.70;;;;;;5069065;28;20416;-72
2023/10/06 06:32:53;;;;;;;15.40;7.80;;;14.40;79.70;;;;;;5071845;28;20399;-72
2023/10/06 06:35:23;;;;;;;15.20;7.40;;;14.40;79.00;;;;;;5069928;28;20411;-71
2023/10/06 06:37:51;;;;;;;17.35;7.82;;;14.40;79.30;;;;;;5061508;28;20537;-71
2023/10/06 06:40:20;;;;;;;15.50;7.05;;;14.40;79.40;;;;;;5071299;28;20396;-71
2023/10/06 06:42:51;;;;;;;13.68;7.70;;;14.40;79.00;;;;;;5070337;28;20435;-71
2023/10/06 06:45:17;;;;;;;16.15;7.68;;;14.50;79.30;;;;;;5071280;28;20415;-72
2023/10/06 06:47:43;;;;;;;16.90;7.22;;;14.50;79.20;;;;;;5061628;28;20427;-72
2023/10/06 06:50:15;;;;;;;17.08;7.13;;;14.50;79.30;;;;;;5069858;28;20781;-71
2023/10/06 06:52:40;;;;;;;16.08;7.32;;;14.60;79.20;;;;;;5070917;28;20479;-71
2023/10/06 06:55:12;;;;;;;15.43;7.68;;;14.50;78.90;;;;;;5070730;28;20483;-70
2023/10/06 06:57:45;;;;;;;16.93;8.50;;;14.60;79.00;;;;;;5070982;28;20416;-71
2023/10/06 07:00:17;;;;;;;15.60;7.80;;;14.60;78.60;;;;;;5069424;28;20830;-71
2023/10/06 07:02:46;;;;;;;14.10;7.53;;;14.70;79.00;;;;;;5070526;28;20959;-71
2023/10/06 07:05:14;;;;;;;14.68;8.00;;;14.70;79.10;;;;;;5071239;28;20437;-71
2023/10/06 07:07:42;;;;;;;14.70;7.17;;;14.60;79.10;;;;;;5068951;28;20403;-73
2023/10/06 07:10:13;;;;;;;14.35;7.43;;;14.70;79.20;;;;;;5060747;28;20399;-73
2023/10/06 07:12:40;;;;;;;16.05;8.10;;;14.70;79.30;;;;;;5070288;28;20407;-72
2023/10/06 07:15:14;;;;;;;14.73;7.27;;;14.70;79.30;;;;;;5069718;28;20425;-71
2023/10/06 07:17:45;;;;;;;15.47;7.13;;;14.80;79.40;;;;;;5069210;28;20415;-71
2023/10/06 07:20:24;;;;;;;16.70;7.40;;;14.80;79.30;;;;;;5069164;28;20753;-71
2023/10/06 07:22:54;;;;;;;14.55;7.57;;;14.80;79.20;;;;;;5070229;28;20427;-72
2023/10/06 07:25:21;;;;;;;16.23;7.93;;;14.90;79.30;;;;;;5070460;28;20423;-72
2023/10/06 07:27:49;;;;;;;17.30;7.50;;;14.90;78.70;;;;;;5069281;28;20410;-71
2023/10/06 07:30:16;;;;;;;15.98;7.28;;;15.00;78.40;;;;;;5070451;28;20403;-72
2023/10/06 07:32:46;;;;;;;16.00;7.00;;;15.00;78.50;;;;;;5069231;28;20505;-72
2023/10/06 07:35:17;;;;;;;16.15;7.45;;;15.00;78.20;;;;;;5069049;28;20399;-72
2023/10/06 07:37:49;;;;;;;17.77;7.70;;;15.00;77.70;;;;;;5069681;28;20410;-71
2023/10/06 07:40:18;;;;;;;16.05;7.50;;;15.10;77.80;;;;;;5068542;28;20478;-71
2023/10/06 07:42:51;;;;;;;16.15;7.20;;;15.10;77.60;;;;;;5070614;28;20516;-71
2023/10/06 07:45:20;;;;;;;21.15;8.52;;;15.10;77.50;;;;;;5070343;28;20823;-71
2023/10/06 07:47:47;;;;;;;15.43;8.10;;;15.10;77.60;;;;;;5070149;28;20410;-71
2023/10/06 07:50:14;;;;;;;16.17;7.85;;;15.10;78.10;;;;;;5069881;28;20480;-72
2023/10/06 07:52:44;;;;;;;17.97;8.30;;;15.10;77.50;;;;;;5070476;28;20403;-72
2023/10/06 07:55:11;;;;;;;18.30;8.77;;;15.10;78.00;;;;;;5069422;28;20438;-72
2023/10/06 07:57:41;;;;;;;17.23;9.13;;;15.10;78.10;;;;;;5070037;28;20419;-72
2023/10/06 08:00:08;;;;;;;19.45;9.05;;;15.00;78.70;;;;;;5069019;28;20766;-72
2023/10/06 08:02:36;;;;;;;19.17;9.57;;;15.00;79.50;;;;;;5069898;28;20443;-71
2023/10/06 08:05:04;;;;;;;19.52;9.95;;;15.00;80.00;;;;;;5070113;28;20388;-71
2023/10/06 08:07:30;;;;;;;20.95;10.32;;;15.00;80.90;;;;;;5069529;28;20483;-71
2023/10/06 08:10:00;;;;;;;16.83;10.30;;;15.00;81.50;;;;;;5056708;28;20419;-71
2023/10/06 08:12:31;;;;;;;19.92;10.40;;;15.00;81.90;;;;;;5069358;28;20475;-71
2023/10/06 08:14:58;;;;;;;21.65;11.00;;;15.00;82.30;;;;;;5070126;28;20465;-71
2023/10/06 08:17:27;;;;;;;20.88;11.88;;;15.00;83.00;;;;;;5069458;28;20419;-71
2023/10/06 08:19:54;;;;;;;18.48;11.05;;;15.00;83.00;;;;;;5070219;28;20404;-72
2023/10/06 08:22:22;;;;;;;20.45;11.13;;;15.00;83.20;;;;;;5069425;28;20474;-72
2023/10/06 08:24:47;;;;;;;20.05;11.80;;;15.00;83.70;;;;;;5068113;28;20451;-71
2023/10/06 08:27:20;;;;;;;21.73;11.73;;;15.00;84.40;;;;;;5069713;28;20427;-71
2023/10/06 08:29:47;;;;;;;20.55;11.52;;;15.00;84.30;;;;;;5069462;28;20475;-71
2023/10/06 08:32:12;;;;;;;20.05;11.13;;;15.10;84.30;;;;;;5068983;28;20424;-72
2023/10/06 08:34:39;;;;;;;20.73;12.33;;;15.10;83.90;;;;;;5068119;28;20830;-71
2023/10/06 08:37:11;;;;;;;18.33;11.57;;;15.10;84.40;;;;;;5068455;28;20411;-72
2023/10/06 08:39:40;;;;;;;21.23;11.88;;;15.10;84.70;;;;;;5069364;28;20893;-72
2023/10/06 08:42:15;;;;;;;22.75;12.63;;;15.20;84.80;;;;;;5067577;28;21008;-71
2023/10/06 08:44:41;;;;;;;19.73;11.85;;;15.10;84.90;;;;;;5068013;28;20407;-72
2023/10/06 08:47:12;;;;;;;22.08;11.63;;;15.20;84.40;;;;;;5069277;28;20897;-72
2023/10/06 08:49:40;;;;;;;21.48;11.35;;;15.20;84.40;;;;;;5069009;28;20395;-71
2023/10/06 08:52:09;;;;;;;17.90;10.88;;;15.20;85.30;;;;;;5067624;28;20442;-72
2023/10/06 08:54:36;;;;;;;27.75;15.38;;;15.30;85.50;;;;;;5068667;28;20484;-72
2023/10/06 08:57:03;;;;;;;17.63;10.48;;;15.30;85.40;;;;;;5068511;28;20918;-72
2023/10/06 08:59:31;;;;;;;18.48;10.75;;;15.30;85.10;;;;;;5068486;28;20396;-72
2023/10/06 09:01:59;;;;;;;21.88;11.32;;;15.40;85.80;;;;;;5068595;28;20407;-72
2023/10/06 09:04:33;;;;;;;20.73;11.03;;;15.40;86.10;;;;;;5068912;28;20739;-72
2023/10/06 09:07:07;;;;;;;18.00;10.60;;;15.40;86.00;;;;;;5067226;28;20495;-72
2023/10/06 09:09:32;;;;;;;17.13;9.70;;;15.50;85.70;;;;;;5066594;28;20416;-72
2023/10/06 09:11:58;;;;;;;18.43;10.63;;;15.50;85.40;;;;;;5068647;28;20813;-71
2023/10/06 09:14:25;;;;;;;20.13;10.40;;;15.50;85.50;;;;;;5068678;28;20483;-72
2023/10/06 09:16:51;;;;;;;17.23;9.82;;;15.60;85.30;;;;;;5066727;28;20416;-72
2023/10/06 09:19:18;;;;;;;15.87;9.10;;;15.60;85.10;;;;;;5068435;28;20469;-72
2023/10/06 09:22:06;;;;;;;16.33;8.55;;;15.70;84.60;;;;;;5067805;28;20399;-72
2023/10/06 09:24:32;;;;;;;18.97;9.00;;;15.80;84.30;;;;;;5066757;28;20414;-72
2023/10/06 09:26:58;;;;;;;18.67;9.43;;;15.80;84.10;;;;;;5068102;28;20665;-72
2023/10/06 09:29:36;;;;;;;21.33;9.20;;;15.90;84.10;;;;;;5067986;28;20407;-72
2023/10/06 09:32:19;;;;;;;14.07;8.17;;;15.90;83.90;;;;;;5066791;28;20894;-72
2023/10/06 09:34:45;;;;;;;15.57;8.60;;;16.00;83.70;;;;;;5068398;28;20479;-72
2023/10/06 09:37:20;;;;;;;14.23;7.60;;;16.10;83.90;;;;;;5068050;28;20503;-72
2023/10/06 09:40:10;;;;;;;20.77;8.25;;;16.20;83.90;;;;;;5067182;28;20403;-72
2023/10/06 09:42:36;;;;;;;16.50;8.13;;;16.30;83.60;;;;;;5058252;28;20423;-72
2023/10/06 09:45:07;;;;;;;15.07;7.32;;;16.50;83.00;;;;;;5066666;28;20400;-72
2023/10/06 09:47:40;;;;;;;14.63;7.25;;;16.50;81.90;;;;;;5058959;28;20514;-72
2023/10/06 09:50:07;;;;;;;16.17;7.03;;;16.60;81.60;;;;;;5067963;28;20500;-72
2023/10/06 09:52:34;;;;;;;17.38;7.15;;;16.70;81.40;;;;;;5067813;28;20731;-72
2023/10/06 09:55:04;;;;;;;16.02;6.43;;;16.80;81.30;;;;;;5068005;28;20440;-71
2023/10/06 09:57:35;;;;;;;15.75;6.40;;;16.90;80.30;;;;;;5066827;28;20418;-72
2023/10/06 10:00:01;;;;;;;17.58;6.70;;;17.00;80.20;;;;;;5063828;28;20470;-72
2023/10/06 10:02:29;;;;;;;14.15;6.50;;;17.10;78.80;;;;;;5067366;28;20473;-72
2023/10/06 10:04:59;;;;;;;13.85;6.18;;;17.20;77.70;;;;;;5067800;28;20411;-71
2023/10/06 10:07:28;;;;;;;13.50;5.68;;;17.20;77.10;;;;;;5067653;28;20408;-72
2023/10/06 10:09:55;;;;;;;13.65;5.32;;;17.30;76.50;;;;;;5053876;28;20972;-72
2023/10/06 10:12:32;;;;;;;14.18;5.80;;;17.40;75.90;;;;;;5067799;28;20840;-71
2023/10/06 10:15:51;;;;;;;13.10;5.15;;;17.50;75.40;;;;;;5067883;28;20445;-71
2023/10/06 10:18:29;;;;;;;13.27;4.22;;;17.60;75.40;;;;;;5015028;28;20430;-72
2023/10/06 10:20:59;;;;;;;14.48;4.60;;;17.80;73.70;;;;;;5061821;28;20869;-71
2023/10/06 10:23:29;;;;;;;11.88;4.25;;;18.00;72.00;;;;;;5067370;28;20497;-71
2023/10/06 10:26:02;;;;;;;13.75;4.50;;;18.20;69.50;;;;;;5066760;28;20537;-72
2023/10/06 10:28:28;;;;;;;12.48;4.32;;;18.30;65.40;;;;;;5067493;28;20727;-71
2023/10/06 10:30:59;;;;;;;14.07;4.60;;;18.30;62.90;;;;;;5066559;28;20407;-72
2023/10/06 10:33:29;;;;;;;14.18;4.03;;;18.30;63.80;;;;;;5067694;28;20430;-71
2023/10/06 10:36:17;;;;;;;13.57;4.80;;;18.30;64.20;;;;;;5067687;28;20456;-71
2023/10/06 10:38:43;;;;;;;11.87;3.97;;;18.40;63.90;;;;;;5067298;28;20469;-71
2023/10/06 10:41:10;;;;;;;15.30;4.20;;;18.50;64.10;;;;;;5067316;28;20426;-72
2023/10/06 10:43:43;;;;;;;12.27;4.03;;;18.60;64.20;;;;;;5067125;28;20937;-71
2023/10/06 10:46:08;;;;;;;16.00;4.20;;;18.70;60.70;;;;;;5066105;28;20419;-71
2023/10/06 10:48:47;;;;;;;13.57;3.77;;;18.70;58.20;;;;;;5066553;28;20407;-71
2023/10/06 10:51:14;;;;;;;13.45;4.22;;;18.70;58.00;;;;;;5066461;28;20748;-71
2023/10/06 10:53:46;;;;;;;14.15;3.80;;;18.70;58.50;;;;;;5067259;28;20404;-72
2023/10/06 10:56:13;;;;;;;12.35;3.92;;;18.60;58.40;;;;;;5067268;28;20457;-71
2023/10/06 10:58:42;;;;;;;10.60;3.70;;;18.60;58.80;;;;;;5067210;28;21264;-72
2023/10/06 11:01:27;;;;;;;13.13;3.92;;;18.60;60.00;;;;;;5067361;28;20897;-71
2023/10/06 11:04:37;;;;;;;15.32;4.53;;;18.80;60.00;;;;;;5059183;28;20424;-71
2023/10/06 11:07:15;;;;;;;10.30;3.60;;;18.90;60.40;;;;;;5059188;28;20495;-71
2023/10/06 11:09:41;;;;;;;13.93;3.33;;;19.20;56.80;;;;;;5065123;28;20411;-72
2023/10/06 11:12:15;;;;;;;12.77;4.30;;;19.50;54.50;;;;;;5067737;28;20453;-72
2023/10/06 11:14:41;;;;;;;11.67;3.70;;;19.60;49.00;;;;;;5065324;28;20416;-71
2023/10/06 11:17:07;;;;;;;13.57;4.07;;;19.60;47.20;;;;;;5069931;28;20407;-71
2023/10/06 11:19:34;;;;;;;14.60;3.88;;;19.90;49.40;;;;;;5070283;28;20422;-71
2023/10/06 11:22:13;;;;;;;11.60;3.45;;;20.30;46.50;;;;;;5070499;28;20392;-71
2023/10/06 11:24:40;;;;;;;11.82;3.28;;;20.60;39.90;;;;;;5059344;28;20399;-71
2023/10/06 11:27:24;;;;;;;12.20;3.30;;;20.70;36.90;;;;;;5070593;28;20400;-71
2023/10/06 11:29:52;;;;;;;9.07;3.30;;;20.70;31.90;;;;;;5071009;28;20807;-72
2023/10/06 11:32:18;;;;;;;12.32;3.60;;;20.50;30.60;;;;;;5068450;28;20516;-72
2023/10/06 11:34:54;;;;;;;11.52;3.25;;;20.20;27.40;;;;;;5070639;28;20395;-71
2023/10/06 11:37:24;;;;;;;15.88;3.88;;;20.00;32.30;;;;;;5069907;28;20762;-72
2023/10/06 11:39:53;;;;;;;10.90;3.60;;;19.80;31.60;;;;;;5058989;28;20402;-71
2023/10/06 11:42:25;;;;;;;14.43;3.50;;;19.70;36.00;;;;;;5069007;28;20410;-71
2023/10/06 11:44:52;;;;;;;13.13;3.30;;;19.70;36.30;;;;;;5070025;28;20435;-71
2023/10/06 11:47:27;;;;;;;11.40;2.92;;;19.70;34.80;;;;;;5064678;28;20741;-71
2023/10/06 11:49:57;;;;;;;10.50;3.05;;;19.70;39.20;;;;;;5081763;28;20446;-71
2023/10/06 11:52:23;;;;;;;11.70;3.50;;;19.70;37.00;;;;;;5070329;28;20992;-71
2023/10/06 11:54:49;;;;;;;12.75;3.20;;;19.70;37.10;;;;;;5070067;28;20931;-71
2023/10/06 11:57:15;;;;;;;13.80;3.22;;;19.70;36.10;;;;;;5070046;28;20457;-72
2023/10/06 11:59:51;;;;;;;12.35;3.45;;;19.60;38.00;;;;;;5068822;28;20410;-72
2023/10/06 12:02:17;;;;;;;9.38;2.80;;;19.70;38.10;;;;;;5068875;28;20502;-72
2023/10/06 12:04:43;;;;;;;10.65;3.00;;;19.70;40.00;;;;;;5069317;28;20573;-72
2023/10/06 12:07:24;;;;;;;11.32;2.90;;;19.60;37.10;;;;;;5070413;28;20599;-72
2023/10/06 12:09:50;;;;;;;12.73;2.70;;;19.50;34.90;;;;;;5069301;28;20471;-72
2023/10/06 12:12:17;;;;;;;12.35;2.80;;;19.40;38.40;;;;;;5068341;28;20514;-72
2023/10/06 12:14:44;;;;;;;11.68;3.15;;;19.40;40.60;;;;;;5079055;28;20409;-72
2023/10/06 12:17:13;;;;;;;13.00;3.38;;;19.50;41.20;;;;;;5062706;28;21015;-73
2023/10/06 12:19:42;;;;;;;14.05;3.15;;;19.60;39.90;;;;;;5057720;28;20971;-72
2023/10/06 12:22:08;;;;;;;11.80;2.45;;;19.60;40.00;;;;;;5069472;28;20822;-72
2023/10/06 12:24:33;;;;;;;12.07;2.92;;;19.70;38.20;;;;;;5069779;28;20903;-72
2023/10/06 12:26:59;;;;;;;12.70;2.47;;;19.60;36.30;;;;;;5067487;28;20475;-72
2023/10/06 12:29:25;;;;;;;9.52;2.72;;;19.60;35.60;;;;;;5069530;28;20494;-72
2023/10/06 12:31:50;;;;;;;10.47;2.40;;;19.50;37.70;;;;;;5069092;28;20426;-72
2023/10/06 12:34:16;;;;;;;14.97;3.30;;;19.50;39.00;;;;;;5069905;28;20411;-72
2023/10/06 12:36:47;;;;;;;11.30;2.40;;;19.70;39.00;;;;;;5069176;28;20557;-72
2023/10/06 12:39:21;;;;;;;10.88;2.58;;;19.70;37.70;;;;;;5068443;28;20415;-72
2023/10/06 12:41:46;;;;;;;11.87;2.60;;;19.80;39.00;;;;;;5069125;28;20399;-72
2023/10/06 12:44:16;;;;;;;10.55;2.50;;;19.80;34.80;;;;;;5069377;28;20432;-72
2023/10/06 12:46:41;;;;;;;10.55;2.65;;;19.90;33.80;;;;;;5068014;28;20466;-71
2023/10/06 12:49:07;;;;;;;10.13;2.53;;;19.80;29.80;;;;;;5068999;28;20886;-71
2023/10/06 12:51:34;;;;;;;12.43;2.58;;;19.80;30.30;;;;;;5067725;28;20399;-71
2023/10/06 12:54:00;;;;;;;11.77;2.72;;;19.80;31.60;;;;;;5069476;28;20509;-71
2023/10/06 12:56:28;;;;;;;14.07;2.63;;;19.70;32.50;;;;;;5068511;28;20522;-71